Time;durP1;ratioP1;P1;durP2;ratioP2;P2;SDS_P1;SDS_P2;PMS_P1;PMS_P2;Temp;Humidity;BMP_temperature;BMP_pressure;BME280_temperature;BME280_humidity;BME280_pressure;Samples;Min_cycle;Max_cycle;Signal;HPM_P1;HPM_P2
2022/03/31 00:00:39;;;;;;;3.10;0.83;;;3.90;52.10;;;;;;5015332;28;20417;-87
2022/03/31 00:03:10;;;;;;;6.00;2.20;;;3.90;1.00;;;;;;5014938;28;20425;-90
2022/03/31 00:05:37;;;;;;;2.40;1.47;;;3.90;99.90;;;;;;5014696;28;20454;-88
2022/03/31 00:08:08;;;;;;;2.17;1.33;;;3.80;99.90;;;;;;5014145;28;20790;-85
2022/03/31 00:10:36;;;;;;;3.40;1.17;;;3.80;99.90;;;;;;5013904;28;20937;-86
2022/03/31 00:13:05;;;;;;;2.57;1.07;;;3.80;1.00;;;;;;5012663;28;20434;-86
2022/03/31 00:15:31;;;;;;;1.70;1.30;;;3.80;1.00;;;;;;5013447;28;20445;-85
2022/03/31 00:17:58;;;;;;;2.07;0.50;;;3.90;1.00;;;;;;5012379;28;20453;-85
2022/03/31 00:20:25;;;;;;;2.20;1.40;;;3.80;91.20;;;;;;5012540;28;20897;-85
2022/03/31 00:22:53;;;;;;;3.00;1.70;;;3.80;99.90;;;;;;5013693;28;20931;-85
2022/03/31 00:25:18;;;;;;;4.63;2.10;;;3.60;1.00;;;;;;5013543;28;20422;-84
2022/03/31 00:27:44;;;;;;;1.63;1.50;;;3.70;1.00;;;;;;5013582;28;20419;-84
2022/03/31 00:30:12;;;;;;;2.70;1.60;;;3.60;1.00;;;;;;5013195;28;20179;-84
2022/03/31 00:32:38;;;;;;;3.07;2.00;;;3.50;1.00;;;;;;5013537;28;20247;-84
2022/03/31 00:35:12;;;;;;;2.67;1.80;;;3.60;1.00;;;;;;5013067;28;20538;-84
2022/03/31 00:37:40;;;;;;;2.87;1.80;;;3.60;1.00;;;;;;5013428;28;20881;-84
2022/03/31 00:40:06;;;;;;;3.43;1.70;;;3.50;1.00;;;;;;5013143;28;20457;-84
2022/03/31 00:42:37;;;;;;;2.90;1.80;;;3.50;1.00;;;;;;5013321;28;20421;-84
2022/03/31 00:45:03;;;;;;;6.70;1.77;;;3.50;1.00;;;;;;5011800;28;20406;-84
2022/03/31 00:47:29;;;;;;;2.23;2.00;;;3.50;3.40;;;;;;5011836;28;20525;-84
2022/03/31 00:49:54;;;;;;;2.23;2.00;;;3.40;67.30;;;;;;5028479;28;20166;-85
2022/03/31 00:52:20;;;;;;;8.17;2.80;;;3.20;99.90;;;;;;5011927;28;20270;-84
2022/03/31 00:54:45;;;;;;;2.57;2.23;;;3.30;99.90;;;;;;5013260;28;20572;-84
2022/03/31 00:57:12;;;;;;;2.50;1.70;;;3.20;99.90;;;;;;5028327;28;20225;-84
2022/03/31 00:59:38;;;;;;;5.47;2.13;;;3.20;99.90;;;;;;5013192;28;20254;-84
2022/03/31 01:02:05;;;;;;;4.33;1.97;;;3.10;99.90;;;;;;5012782;28;20517;-84
2022/03/31 01:04:30;;;;;;;2.37;2.07;;;3.00;99.90;;;;;;5013055;28;20413;-84
2022/03/31 01:06:56;;;;;;;3.53;2.00;;;3.10;99.90;;;;;;5028278;28;20480;-84
2022/03/31 01:09:22;;;;;;;4.50;2.10;;;2.90;99.90;;;;;;5013144;28;20179;-84
2022/03/31 01:11:48;;;;;;;4.53;2.60;;;3.00;99.90;;;;;;5013058;28;20435;-85
2022/03/31 01:14:14;;;;;;;2.90;2.20;;;2.90;99.90;;;;;;5013105;28;20539;-84
2022/03/31 01:16:40;;;;;;;5.90;2.53;;;2.90;99.90;;;;;;5011353;28;20435;-84
2022/03/31 01:19:07;;;;;;;5.33;2.50;;;2.80;99.90;;;;;;5013012;28;20417;-84
2022/03/31 01:21:41;;;;;;;2.30;2.10;;;2.80;99.90;;;;;;5012940;28;20776;-83
2022/03/31 01:24:09;;;;;;;4.63;2.00;;;2.80;99.90;;;;;;5012923;28;20414;-84
2022/03/31 01:26:36;;;;;;;2.30;1.87;;;2.80;99.90;;;;;;5012831;28;20495;-84
2022/03/31 01:29:02;;;;;;;4.27;3.10;;;2.70;99.90;;;;;;5027984;28;20505;-84
2022/03/31 01:31:28;;;;;;;3.30;2.60;;;2.80;99.90;;;;;;5027749;28;20524;-84
2022/03/31 01:33:54;;;;;;;3.37;2.53;;;2.70;99.90;;;;;;5028062;28;20914;-84
2022/03/31 01:36:20;;;;;;;5.33;1.97;;;2.70;99.90;;;;;;5011583;28;20171;-84
2022/03/31 01:38:46;;;;;;;3.00;1.80;;;2.70;99.90;;;;;;5012535;28;20475;-85
2022/03/31 01:41:12;;;;;;;4.70;2.73;;;2.70;99.90;;;;;;5012753;28;20411;-84
2022/03/31 01:43:37;;;;;;;7.30;2.50;;;2.70;99.90;;;;;;5012836;28;20414;-84
2022/03/31 01:46:03;;;;;;;2.97;2.53;;;2.70;99.90;;;;;;5012390;28;20216;-85
2022/03/31 01:48:29;;;;;;;3.13;2.67;;;2.70;99.90;;;;;;5015341;28;20199;-84
2022/03/31 01:50:55;;;;;;;3.80;2.27;;;2.80;99.90;;;;;;5016448;28;20165;-85
2022/03/31 01:53:21;;;;;;;2.93;2.53;;;2.80;99.90;;;;;;5031682;28;20472;-84
2022/03/31 01:55:46;;;;;;;5.37;2.50;;;2.80;99.90;;;;;;5014955;28;20182;-84
2022/03/31 01:58:12;;;;;;;4.40;3.10;;;2.80;99.90;;;;;;5016322;28;20239;-85
2022/03/31 02:00:40;;;;;;;4.57;3.03;;;2.80;99.90;;;;;;5015768;28;20182;-85
2022/03/31 02:03:05;;;;;;;4.83;3.00;;;2.70;99.90;;;;;;5014965;28;20220;-85
2022/03/31 02:05:37;;;;;;;3.50;2.93;;;2.80;99.90;;;;;;5014755;28;20838;-86
2022/03/31 02:08:03;;;;;;;3.87;2.63;;;2.80;99.90;;;;;;5016200;28;20193;-86
2022/03/31 02:10:31;;;;;;;5.80;2.80;;;2.70;99.90;;;;;;5016087;28;20410;-85
2022/03/31 02:12:57;;;;;;;3.33;3.03;;;2.60;99.90;;;;;;5016005;28;20633;-87
2022/03/31 02:15:22;;;;;;;4.23;2.57;;;2.50;99.90;;;;;;5015739;28;20419;-86
2022/03/31 02:17:49;;;;;;;4.70;2.80;;;2.40;99.90;;;;;;5014808;28;20173;-88
2022/03/31 02:20:14;;;;;;;3.20;2.10;;;2.40;99.90;;;;;;5014618;28;20183;-85
2022/03/31 02:22:40;;;;;;;3.27;2.97;;;2.50;99.90;;;;;;5015820;28;20411;-85
2022/03/31 02:25:09;;;;;;;5.00;3.80;;;2.50;99.90;;;;;;5014500;28;20686;-85
2022/03/31 02:27:38;;;;;;;3.13;2.77;;;2.40;99.90;;;;;;5015575;28;20220;-85
2022/03/31 02:30:08;;;;;;;3.80;2.63;;;2.40;99.90;;;;;;5015342;28;20802;-86
2022/03/31 02:32:35;;;;;;;2.83;2.50;;;2.30;99.90;;;;;;5015552;28;20780;-87
2022/03/31 02:35:01;;;;;;;4.37;3.97;;;2.30;99.90;;;;;;5014109;28;20505;-86
2022/03/31 02:37:27;;;;;;;5.43;3.33;;;2.30;99.90;;;;;;5014306;28;20414;-86
2022/03/31 02:39:53;;;;;;;4.67;3.70;;;2.40;99.90;;;;;;5029942;28;20472;-87
2022/03/31 02:42:18;;;;;;;3.43;2.77;;;2.30;99.90;;;;;;5015570;28;20171;-87
2022/03/31 02:44:44;;;;;;;3.87;3.03;;;2.30;99.90;;;;;;5030559;28;20266;-87
2022/03/31 02:47:11;;;;;;;6.57;3.73;;;2.20;99.90;;;;;;5015470;28;20378;-86
2022/03/31 02:49:37;;;;;;;4.50;3.97;;;2.30;99.90;;;;;;5030617;28;20471;-86
2022/03/31 02:52:03;;;;;;;4.13;3.03;;;2.40;99.90;;;;;;5014137;28;20537;-87
2022/03/31 02:57:15;;;;;;;4.53;3.70;;;2.20;99.90;;;;;;5015544;28;20411;-86
2022/03/31 02:59:41;;;;;;;5.67;3.40;;;2.10;99.90;;;;;;5014436;28;21317;-86
2022/03/31 03:02:07;;;;;;;4.27;3.23;;;2.00;99.90;;;;;;5030408;28;20206;-85
2022/03/31 03:04:34;;;;;;;5.90;4.10;;;2.00;99.90;;;;;;5015098;28;20257;-85
2022/03/31 03:06:59;;;;;;;7.03;4.03;;;2.00;99.90;;;;;;5020175;28;20477;-85
2022/03/31 03:09:25;;;;;;;4.17;3.60;;;2.00;99.90;;;;;;5015435;28;20913;-85
2022/03/31 03:11:51;;;;;;;5.20;3.57;;;2.00;99.90;;;;;;5014019;28;20616;-86
2022/03/31 03:14:21;;;;;;;4.67;4.17;;;1.90;99.90;;;;;;5015850;28;20201;-85
2022/03/31 03:16:48;;;;;;;4.73;3.03;;;2.00;99.90;;;;;;5015560;28;20205;-86
2022/03/31 03:19:13;;;;;;;4.63;3.87;;;1.90;99.90;;;;;;5013818;28;20883;-86
2022/03/31 03:21:39;;;;;;;5.00;3.93;;;1.80;99.90;;;;;;5013644;28;20266;-85
2022/03/31 03:24:05;;;;;;;6.60;3.90;;;1.70;99.90;;;;;;5014842;28;20180;-86
2022/03/31 03:26:30;;;;;;;4.07;3.67;;;1.70;99.90;;;;;;5014828;28;20582;-86
2022/03/31 03:28:56;;;;;;;4.70;3.90;;;1.60;99.90;;;;;;5014645;28;20438;-87
2022/03/31 03:31:22;;;;;;;3.80;3.50;;;1.50;99.90;;;;;;5014375;28;20281;-87
2022/03/31 03:33:49;;;;;;;2.93;2.60;;;1.50;99.90;;;;;;5013396;28;20514;-86
2022/03/31 03:36:16;;;;;;;4.20;3.30;;;1.40;99.90;;;;;;5014572;28;20432;-87
2022/03/31 03:38:42;;;;;;;4.93;4.43;;;1.40;99.90;;;;;;5014440;28;20414;-87
2022/03/31 03:41:10;;;;;;;5.07;3.97;;;1.30;99.90;;;;;;5014560;28;20441;-86
2022/03/31 03:43:39;;;;;;;4.53;4.10;;;1.30;99.90;;;;;;5014515;28;20175;-87
2022/03/31 03:46:04;;;;;;;4.77;4.10;;;1.40;99.90;;;;;;5013943;28;20461;-86
2022/03/31 03:48:30;;;;;;;5.60;4.23;;;1.40;99.90;;;;;;5014286;28;20418;-86
2022/03/31 03:50:55;;;;;;;4.23;3.40;;;1.30;99.90;;;;;;5013136;28;20254;-86
2022/03/31 03:53:21;;;;;;;4.23;3.83;;;1.20;99.90;;;;;;5014258;28;20266;-86
2022/03/31 03:55:47;;;;;;;4.57;3.47;;;1.30;99.90;;;;;;5013134;28;20174;-86
2022/03/31 03:58:13;;;;;;;7.30;4.00;;;1.20;99.90;;;;;;5014573;28;20175;-86
2022/03/31 04:00:38;;;;;;;4.13;3.73;;;1.20;99.90;;;;;;5012643;28;20445;-85
2022/03/31 04:03:05;;;;;;;5.37;4.90;;;1.20;99.90;;;;;;5013047;28;20179;-85
2022/03/31 04:05:30;;;;;;;9.67;4.40;;;1.10;99.90;;;;;;5013684;28;20267;-84
2022/03/31 04:07:56;;;;;;;5.27;4.83;;;1.10;99.90;;;;;;5016766;28;20457;-84
2022/03/31 04:10:21;;;;;;;4.57;3.77;;;1.20;99.90;;;;;;5028454;28;20186;-84
2022/03/31 04:12:47;;;;;;;5.63;4.40;;;1.10;99.90;;;;;;5012600;28;20181;-83
2022/03/31 04:15:13;;;;;;;5.60;4.43;;;1.10;99.90;;;;;;5028704;28;20213;-83
2022/03/31 04:17:39;;;;;;;7.97;3.77;;;1.10;99.90;;;;;;5013796;28;20178;-82
2022/03/31 04:20:09;;;;;;;5.97;4.50;;;1.00;99.90;;;;;;5012555;28;20429;-82
2022/03/31 04:22:37;;;;;;;5.47;4.13;;;1.00;99.90;;;;;;5013715;28;20442;-83
2022/03/31 04:25:04;;;;;;;4.77;4.20;;;1.00;99.90;;;;;;5014301;28;20407;-82
2022/03/31 04:27:29;;;;;;;5.53;4.90;;;1.00;99.90;;;;;;5014494;28;20515;-83
2022/03/31 04:29:55;;;;;;;6.23;4.40;;;1.00;99.90;;;;;;5013348;28;20491;-86
2022/03/31 04:32:20;;;;;;;5.63;4.97;;;1.00;99.90;;;;;;5013630;28;20579;-84
2022/03/31 04:34:46;;;;;;;4.80;4.30;;;1.00;99.90;;;;;;5028737;28;20713;-85
2022/03/31 04:37:11;;;;;;;6.13;3.80;;;1.10;99.90;;;;;;5013479;28;20695;-84
2022/03/31 04:39:37;;;;;;;5.00;4.07;;;1.10;99.90;;;;;;5013061;28;20337;-84
2022/03/31 04:42:03;;;;;;;4.87;3.83;;;1.10;99.90;;;;;;5013496;28;20176;-82
2022/03/31 04:44:29;;;;;;;6.80;4.57;;;1.00;99.90;;;;;;5029937;28;20213;-82
2022/03/31 04:46:54;;;;;;;6.80;4.93;;;1.00;99.90;;;;;;5013556;28;20245;-82
2022/03/31 04:49:20;;;;;;;4.63;4.07;;;1.00;99.90;;;;;;5028707;28;20182;-83
2022/03/31 04:51:45;;;;;;;4.67;3.43;;;0.90;99.90;;;;;;5013228;28;20166;-85
2022/03/31 04:54:11;;;;;;;9.07;3.83;;;0.90;99.90;;;;;;5013367;28;20226;-82
2022/03/31 04:56:39;;;;;;;6.00;4.50;;;0.80;99.90;;;;;;5012141;28;20541;-83
2022/03/31 04:59:05;;;;;;;5.90;3.77;;;1.10;99.90;;;;;;5012941;28;20246;-84
2022/03/31 05:01:30;;;;;;;3.30;2.40;;;0.80;99.90;;;;;;5013268;28;20422;-83
2022/03/31 05:03:56;;;;;;;8.33;5.00;;;1.10;99.90;;;;;;5013129;28;20426;-83
2022/03/31 05:06:22;;;;;;;4.67;4.17;;;1.00;99.90;;;;;;5012965;28;20231;-83
2022/03/31 05:08:47;;;;;;;5.93;4.53;;;0.90;99.90;;;;;;5013168;28;20225;-83
2022/03/31 05:11:13;;;;;;;4.10;3.80;;;0.90;99.90;;;;;;5028242;28;20178;-83
2022/03/31 05:13:39;;;;;;;5.00;3.20;;;1.10;99.90;;;;;;5013160;28;20179;-82
2022/03/31 05:16:05;;;;;;;6.63;4.13;;;0.90;99.90;;;;;;5012699;28;20181;-83
2022/03/31 05:18:31;;;;;;;4.73;3.23;;;1.40;99.90;;;;;;5011793;28;20479;-82
2022/03/31 05:20:59;;;;;;;6.30;4.10;;;0.80;99.90;;;;;;5013284;28;20493;-83
2022/03/31 05:23:25;;;;;;;4.40;3.90;;;0.90;99.90;;;;;;5016921;28;20416;-83
2022/03/31 05:25:50;;;;;;;5.70;4.50;;;0.80;99.90;;;;;;5031813;28;20510;-83
2022/03/31 05:28:16;;;;;;;5.27;3.50;;;0.80;99.90;;;;;;5017008;28;20179;-82
2022/03/31 05:30:43;;;;;;;5.00;3.23;;;0.80;99.90;;;;;;5016557;28;20202;-82
2022/03/31 05:33:09;;;;;;;6.27;4.60;;;0.70;99.90;;;;;;5016898;28;20660;-82
2022/03/31 05:35:35;;;;;;;6.30;4.60;;;0.80;99.90;;;;;;5016576;28;20416;-83
2022/03/31 05:38:01;;;;;;;6.97;4.50;;;0.90;99.90;;;;;;5015390;28;20425;-82
2022/03/31 05:40:27;;;;;;;4.30;3.37;;;0.90;99.90;;;;;;5016462;28;21003;-82
2022/03/31 05:42:55;;;;;;;6.77;4.00;;;0.70;99.90;;;;;;5016382;28;20409;-82
2022/03/31 05:45:21;;;;;;;4.57;4.17;;;0.80;99.90;;;;;;5015947;28;20171;-82
2022/03/31 05:47:46;;;;;;;7.83;4.57;;;0.70;99.90;;;;;;5016190;28;20836;-81
2022/03/31 05:50:13;;;;;;;4.33;3.20;;;0.80;99.90;;;;;;5031680;28;20430;-81
2022/03/31 05:52:39;;;;;;;7.10;5.30;;;0.90;99.90;;;;;;5016355;28;20658;-82
2022/03/31 05:55:07;;;;;;;6.40;4.40;;;0.90;99.90;;;;;;5016264;28;20406;-82
2022/03/31 05:57:34;;;;;;;6.67;3.20;;;0.90;99.90;;;;;;5016282;28;20468;-83
2022/03/31 06:00:00;;;;;;;7.30;3.80;;;0.70;99.90;;;;;;5015806;28;20423;-82
2022/03/31 06:02:25;;;;;;;4.40;2.83;;;0.70;99.90;;;;;;5014930;28;20424;-83
2022/03/31 06:04:51;;;;;;;4.70;3.03;;;0.70;99.90;;;;;;5016134;28;20179;-83
2022/03/31 06:07:17;;;;;;;6.70;5.30;;;0.60;99.90;;;;;;5014738;28;20589;-83
2022/03/31 06:09:42;;;;;;;4.57;3.27;;;0.90;99.90;;;;;;5031232;28;20175;-82
2022/03/31 06:12:08;;;;;;;4.43;3.60;;;0.70;99.90;;;;;;5015729;28;20432;-82
2022/03/31 06:14:34;;;;;;;5.33;3.33;;;0.80;99.90;;;;;;5015443;28;20263;-82
2022/03/31 06:17:00;;;;;;;4.37;3.80;;;0.70;99.90;;;;;;5015914;28;20497;-82
2022/03/31 06:19:28;;;;;;;5.30;3.30;;;0.60;99.90;;;;;;5015915;28;20163;-82
2022/03/31 06:21:53;;;;;;;5.97;3.17;;;0.70;99.90;;;;;;5015835;28;20252;-82
2022/03/31 06:24:19;;;;;;;4.60;3.30;;;0.70;99.90;;;;;;5015812;28;20504;-82
2022/03/31 06:26:45;;;;;;;4.63;4.13;;;0.80;99.90;;;;;;5030846;28;20206;-82
2022/03/31 06:29:11;;;;;;;4.80;2.90;;;0.70;99.90;;;;;;5015455;28;20545;-83
2022/03/31 06:31:38;;;;;;;4.20;3.67;;;0.70;99.90;;;;;;5015602;28;20423;-83
2022/03/31 06:34:03;;;;;;;4.33;3.37;;;0.80;99.90;;;;;;5030077;28;20658;-82
2022/03/31 06:36:30;;;;;;;5.10;3.47;;;0.60;99.90;;;;;;5014292;28;20516;-82
2022/03/31 06:38:56;;;;;;;4.37;3.97;;;0.80;99.90;;;;;;5015393;28;20320;-82
2022/03/31 06:41:21;;;;;;;5.40;3.30;;;0.70;99.90;;;;;;5015538;28;20452;-82
2022/03/31 06:43:48;;;;;;;3.80;3.30;;;0.70;99.90;;;;;;5015167;28;20166;-83
2022/03/31 06:46:15;;;;;;;5.93;3.13;;;0.80;99.90;;;;;;5030597;28;20642;-83
2022/03/31 06:48:42;;;;;;;4.13;3.60;;;0.70;99.90;;;;;;5015440;28;20414;-83
2022/03/31 06:51:10;;;;;;;5.13;3.50;;;1.00;99.90;;;;;;5014103;28;20421;-82
2022/03/31 06:53:37;;;;;;;5.60;3.47;;;0.80;99.90;;;;;;5030497;28;20439;-83
2022/03/31 06:56:07;;;;;;;4.37;2.97;;;0.80;99.90;;;;;;5020987;28;20444;-83
2022/03/31 06:58:36;;;;;;;3.57;3.03;;;0.80;99.90;;;;;;5026351;28;20389;-82
2022/03/31 07:01:03;;;;;;;6.17;3.37;;;0.70;99.90;;;;;;5034598;28;20424;-83
2022/03/31 07:03:28;;;;;;;4.20;3.33;;;0.70;99.90;;;;;;5050055;28;20532;-82
2022/03/31 07:05:55;;;;;;;6.17;3.07;;;0.60;99.90;;;;;;5034816;28;20522;-83
2022/03/31 07:08:21;;;;;;;7.93;3.20;;;0.60;99.90;;;;;;5034750;28;20178;-83
2022/03/31 07:10:46;;;;;;;4.70;3.13;;;0.90;99.90;;;;;;5034693;28;21054;-82
2022/03/31 07:13:12;;;;;;;4.63;3.00;;;0.80;99.90;;;;;;5034675;28;20468;-83
2022/03/31 07:15:38;;;;;;;5.20;4.20;;;0.60;99.90;;;;;;5049524;28;20173;-84
2022/03/31 07:18:05;;;;;;;3.80;2.60;;;0.90;99.90;;;;;;5034576;28;20416;-84
2022/03/31 07:20:34;;;;;;;3.43;2.57;;;0.90;99.90;;;;;;5049694;28;20474;-84
2022/03/31 07:23:00;;;;;;;5.00;3.70;;;0.80;99.90;;;;;;5049898;28;20559;-84
2022/03/31 07:25:27;;;;;;;4.60;3.70;;;0.90;99.90;;;;;;5034576;28;20413;-84
2022/03/31 07:27:52;;;;;;;4.20;3.80;;;0.90;99.90;;;;;;5049629;28;20487;-85
2022/03/31 07:30:19;;;;;;;2.97;2.60;;;0.90;99.90;;;;;;5034020;28;20409;-83
2022/03/31 07:32:47;;;;;;;6.00;2.80;;;0.80;99.90;;;;;;5034312;28;20170;-83
2022/03/31 07:35:12;;;;;;;4.50;3.23;;;0.80;99.90;;;;;;5034238;28;20532;-84
2022/03/31 07:37:38;;;;;;;3.30;3.00;;;0.80;99.90;;;;;;5034241;28;20413;-84
2022/03/31 07:40:04;;;;;;;6.60;3.67;;;1.00;99.90;;;;;;5033997;28;20241;-83
2022/03/31 07:42:30;;;;;;;5.07;3.70;;;1.00;99.90;;;;;;5049546;28;20185;-84
2022/03/31 07:44:56;;;;;;;5.77;3.60;;;1.10;99.90;;;;;;5032781;28;20403;-83
2022/03/31 07:47:27;;;;;;;4.13;3.20;;;1.20;99.90;;;;;;5034008;28;20756;-84
2022/03/31 07:49:53;;;;;;;3.97;3.57;;;1.30;99.90;;;;;;5049101;28;20168;-83
2022/03/31 07:52:21;;;;;;;6.13;3.43;;;1.30;99.90;;;;;;5049642;28;20435;-83
2022/03/31 07:54:47;;;;;;;5.93;3.93;;;1.50;99.90;;;;;;5049325;28;20170;-84
2022/03/31 07:57:13;;;;;;;8.17;3.67;;;1.30;99.90;;;;;;5049327;28;20516;-85
2022/03/31 07:59:39;;;;;;;3.90;3.50;;;1.40;99.90;;;;;;5033933;28;20177;-83
2022/03/31 08:02:04;;;;;;;8.87;3.57;;;1.40;99.90;;;;;;5033800;28;20783;-86
2022/03/31 08:04:30;;;;;;;3.70;3.10;;;1.50;99.90;;;;;;5049194;28;20182;-83
2022/03/31 08:06:59;;;;;;;3.53;3.10;;;1.70;99.90;;;;;;5048957;28;20210;-83
2022/03/31 08:09:25;;;;;;;3.60;3.20;;;1.80;99.90;;;;;;5048959;28;20166;-84
2022/03/31 08:11:51;;;;;;;4.73;2.90;;;1.80;99.90;;;;;;5033625;28;21043;-83
2022/03/31 08:14:21;;;;;;;3.87;3.27;;;1.80;99.90;;;;;;5048428;28;20412;-82
2022/03/31 08:16:48;;;;;;;5.10;2.90;;;1.90;99.90;;;;;;5033479;28;20409;-83
2022/03/31 08:19:17;;;;;;;2.50;1.90;;;2.20;99.90;;;;;;5033502;28;20404;-83
2022/03/31 08:21:44;;;;;;;3.80;2.80;;;2.40;99.90;;;;;;5033478;28;20417;-82
2022/03/31 08:24:11;;;;;;;3.70;2.57;;;2.30;99.90;;;;;;5033430;28;20453;-82
2022/03/31 08:26:43;;;;;;;3.90;3.13;;;2.30;99.90;;;;;;5033161;28;20457;-82
2022/03/31 08:29:09;;;;;;;4.33;2.13;;;2.40;99.90;;;;;;5032993;28;20429;-82
2022/03/31 08:31:35;;;;;;;2.63;2.10;;;2.60;99.90;;;;;;5033307;28;20903;-82
2022/03/31 08:34:02;;;;;;;2.63;2.40;;;2.60;99.90;;;;;;5033283;28;20413;-82
2022/03/31 08:36:28;;;;;;;3.10;1.50;;;2.80;99.90;;;;;;5033223;28;20494;-83
2022/03/31 08:38:53;;;;;;;4.00;3.23;;;2.20;99.90;;;;;;5033211;28;20507;-82
2022/03/31 08:41:21;;;;;;;3.10;2.80;;;2.80;99.90;;;;;;5033197;28;20459;-84
2022/03/31 08:43:47;;;;;;;2.83;1.97;;;2.70;97.20;;;;;;5032863;28;20170;-82
2022/03/31 08:46:13;;;;;;;2.47;2.27;;;2.80;99.90;;;;;;5048401;28;20472;-82
2022/03/31 08:48:39;;;;;;;2.97;2.70;;;2.50;99.90;;;;;;5033164;28;20413;-81
2022/03/31 08:51:08;;;;;;;5.80;2.03;;;2.50;99.90;;;;;;5032999;28;20425;-82
2022/03/31 08:53:34;;;;;;;3.77;2.43;;;2.70;99.90;;;;;;5032909;28;20164;-82
2022/03/31 08:56:00;;;;;;;2.00;1.57;;;2.70;99.90;;;;;;5032639;28;20417;-82
2022/03/31 08:58:26;;;;;;;6.43;2.60;;;2.80;99.90;;;;;;5032622;28;20437;-82
2022/03/31 09:00:52;;;;;;;2.57;2.23;;;2.90;99.90;;;;;;5032975;28;20236;-82
2022/03/31 09:03:18;;;;;;;3.03;2.73;;;3.30;99.90;;;;;;5032952;28;20595;-86
2022/03/31 09:05:49;;;;;;;2.60;1.90;;;3.50;42.90;;;;;;5032940;28;20400;-83
2022/03/31 09:08:16;;;;;;;4.03;2.57;;;4.70;1.00;;;;;;5033154;28;20418;-86
2022/03/31 09:10:49;;;;;;;3.43;2.07;;;4.90;1.00;;;;;;5048252;28;20414;-85
2022/03/31 09:13:24;;;;;;;2.80;1.50;;;5.50;99.90;;;;;;5048263;28;20998;-85
2022/03/31 09:16:10;;;;;;;2.03;1.10;;;5.70;99.90;;;;;;5048481;28;20494;-84
2022/03/31 09:18:37;;;;;;;3.50;1.90;;;5.70;99.90;;;;;;5048653;28;20485;-83
2022/03/31 09:21:06;;;;;;;3.80;1.40;;;6.60;99.90;;;;;;5033262;28;20504;-85
2022/03/31 09:23:41;;;;;;;3.10;1.50;;;7.60;1.00;;;;;;5048680;28;20452;-84
2022/03/31 09:26:11;;;;;;;2.83;1.17;;;8.10;99.90;;;;;;5048074;28;20464;-86
2022/03/31 09:28:37;;;;;;;3.93;2.03;;;8.70;99.90;;;;;;5032550;28;20422;-84
2022/03/31 09:31:10;;;;;;;2.10;1.07;;;8.20;99.90;;;;;;5046460;28;20445;-84
2022/03/31 09:33:48;;;;;;;2.67;1.03;;;8.80;99.90;;;;;;5032687;28;20821;-85
2022/03/31 09:36:18;;;;;;;2.00;1.80;;;6.80;99.90;;;;;;5032617;28;20419;-86
2022/03/31 09:38:53;;;;;;;2.53;1.10;;;7.70;99.90;;;;;;5032592;28;20511;-87
2022/03/31 09:41:27;;;;;;;3.23;1.40;;;6.90;99.90;;;;;;5033044;28;20431;-85
2022/03/31 09:43:55;;;;;;;3.73;1.50;;;7.30;99.90;;;;;;5032346;28;20952;-85
2022/03/31 09:46:25;;;;;;;3.63;1.37;;;7.70;99.90;;;;;;5032425;28;20459;-84
2022/03/31 09:48:55;;;;;;;3.17;1.50;;;8.10;99.90;;;;;;5047886;28;20425;-85
2022/03/31 09:51:22;;;;;;;4.80;1.73;;;7.40;99.90;;;;;;5034260;28;20414;-85
2022/03/31 09:53:49;;;;;;;2.77;1.53;;;8.10;1.00;;;;;;5048235;28;20933;-85
2022/03/31 09:56:17;;;;;;;2.67;1.77;;;7.20;1.00;;;;;;5033139;28;20417;-90
2022/03/31 09:58:46;;;;;;;3.13;1.47;;;6.70;1.00;;;;;;5033312;28;20406;-85
2022/03/31 10:01:15;;;;;;;2.33;1.17;;;7.20;99.90;;;;;;5032584;28;20552;-87
2022/03/31 10:03:41;;;;;;;3.57;1.10;;;7.20;99.90;;;;;;5032607;28;20906;-87
2022/03/31 10:06:08;;;;;;;2.50;1.30;;;7.20;99.90;;;;;;5047812;28;20473;-87
2022/03/31 10:08:38;;;;;;;2.50;1.10;;;7.20;99.90;;;;;;5049143;28;20189;-87
2022/03/31 10:11:04;;;;;;;2.20;1.00;;;7.90;99.90;;;;;;5051543;28;20795;-87
2022/03/31 10:13:43;;;;;;;5.20;1.20;;;8.30;99.90;;;;;;5035609;28;20409;-84
2022/03/31 10:16:16;;;;;;;1.57;0.93;;;8.90;99.90;;;;;;5036621;28;20427;-87
2022/03/31 10:18:45;;;;;;;2.23;0.70;;;8.90;99.90;;;;;;5036072;28;20461;-87
2022/03/31 10:21:10;;;;;;;3.70;1.40;;;9.10;99.90;;;;;;5051255;28;20434;-86
2022/03/31 10:26:27;;;;;;;3.77;1.13;;;9.00;99.90;;;;;;5035300;28;20210;-86
2022/03/31 10:29:10;;;;;;;2.70;1.30;;;9.00;99.90;;;;;;5050500;28;20445;-86
2022/03/31 10:31:38;;;;;;;2.37;1.40;;;9.00;99.90;;;;;;5035612;28;20812;-86
2022/03/31 10:34:05;;;;;;;3.67;1.53;;;9.00;99.80;;;;;;5050694;28;20432;-86
2022/03/31 10:36:47;;;;;;;4.60;1.10;;;8.70;98.70;;;;;;5050604;28;20445;-87
2022/03/31 10:39:26;;;;;;;3.87;0.97;;;8.70;99.90;;;;;;5050342;28;20477;-87
2022/03/31 10:42:10;;;;;;;2.77;1.17;;;8.90;82.50;;;;;;5049997;28;20433;-86
2022/03/31 10:44:35;;;;;;;2.70;1.10;;;8.80;77.90;;;;;;5049166;28;21001;-86
2022/03/31 10:47:07;;;;;;;3.10;0.90;;;8.90;54.70;;;;;;5049460;28;20618;-86
2022/03/31 10:49:34;;;;;;;3.43;1.40;;;8.30;46.60;;;;;;5035253;28;20171;-86
2022/03/31 10:52:12;;;;;;;2.10;0.90;;;8.50;44.60;;;;;;5035026;28;20425;-86
2022/03/31 10:54:37;;;;;;;4.60;1.03;;;8.90;39.80;;;;;;5050645;28;20419;-86
2022/03/31 10:57:12;;;;;;;1.23;0.97;;;8.10;47.60;;;;;;5035184;28;20421;-88
2022/03/31 10:59:39;;;;;;;2.33;2.00;;;7.90;28.90;;;;;;5034803;28;20172;-86
2022/03/31 11:02:12;;;;;;;2.37;1.13;;;7.90;31.40;;;;;;5035015;28;20481;-86
2022/03/31 11:04:46;;;;;;;2.43;1.00;;;7.70;26.80;;;;;;5034979;28;20770;-85
2022/03/31 11:07:24;;;;;;;3.50;0.87;;;8.10;28.70;;;;;;5049984;28;20472;-86
2022/03/31 11:10:05;;;;;;;2.47;1.57;;;8.00;29.40;;;;;;5043023;28;20434;-89
2022/03/31 11:12:33;;;;;;;1.00;0.30;;;8.20;20.80;;;;;;5019298;28;20430;-87
2022/03/31 11:15:02;;;;;;;2.57;1.30;;;7.90;7.50;;;;;;5017352;28;20457;-91
2022/03/31 11:17:28;;;;;;;2.67;1.20;;;7.60;1.00;;;;;;5018251;28;20412;-90
2022/03/31 11:19:59;;;;;;;3.93;1.70;;;7.60;4.20;;;;;;5016987;28;20408;-91
2022/03/31 11:22:27;;;;;;;6.10;1.00;;;7.30;5.80;;;;;;5015647;28;20416;-91
2022/03/31 11:25:07;;;;;;;1.80;0.90;;;7.60;7.40;;;;;;5016748;28;20491;-91
2022/03/31 11:27:38;;;;;;;4.73;1.40;;;7.90;11.70;;;;;;5017884;28;20495;-89
2022/03/31 11:30:11;;;;;;;1.17;0.73;;;6.90;1.00;;;;;;5014953;28;20455;-87
2022/03/31 11:32:41;;;;;;;1.63;0.80;;;8.00;1.00;;;;;;5017330;28;20447;-87
2022/03/31 11:35:16;;;;;;;0.80;0.50;;;8.00;1.00;;;;;;5023420;28;20509;-86
2022/03/31 11:37:45;;;;;;;2.90;0.60;;;7.80;1.00;;;;;;5024611;28;20455;-87
2022/03/31 11:40:22;;;;;;;3.17;0.97;;;8.70;1.00;;;;;;5022804;28;20457;-87
2022/03/31 11:42:54;;;;;;;2.07;1.47;;;8.60;23.50;;;;;;5022058;28;20412;-86
2022/03/31 11:45:29;;;;;;;4.40;0.80;;;8.60;32.00;;;;;;5040198;28;20419;-86
2022/03/31 11:48:04;;;;;;;1.50;0.90;;;8.90;26.40;;;;;;5046591;28;20476;-86
2022/03/31 11:50:31;;;;;;;2.13;0.70;;;9.00;35.60;;;;;;5036716;28;20417;-87
2022/03/31 11:52:58;;;;;;;1.23;0.60;;;9.60;5.20;;;;;;5023331;28;20444;-85
2022/03/31 11:55:24;;;;;;;1.90;0.70;;;8.60;28.80;;;;;;5037365;28;20842;-87
2022/03/31 11:57:57;;;;;;;1.40;0.50;;;8.90;32.20;;;;;;5023568;28;20455;-86
2022/03/31 12:00:25;;;;;;;1.63;1.20;;;8.90;42.80;;;;;;5023624;28;20275;-86
2022/03/31 12:02:59;;;;;;;2.53;0.90;;;9.50;50.70;;;;;;5022253;28;20939;-85
2022/03/31 12:05:25;;;;;;;1.43;0.60;;;9.60;43.90;;;;;;5021654;28;20910;-85
2022/03/31 12:07:52;;;;;;;3.27;0.93;;;9.20;44.20;;;;;;5022960;28;20527;-86
2022/03/31 12:10:18;;;;;;;1.90;0.87;;;9.80;47.60;;;;;;5022957;28;20425;-86
2022/03/31 12:12:49;;;;;;;1.77;0.47;;;9.70;47.10;;;;;;5021473;28;20430;-85
2022/03/31 12:15:22;;;;;;;1.53;0.80;;;9.30;40.10;;;;;;5022657;28;20468;-85
2022/03/31 12:18:01;;;;;;;4.27;1.07;;;9.60;32.50;;;;;;5021702;28;20449;-85
2022/03/31 12:20:28;;;;;;;3.47;0.80;;;9.80;20.90;;;;;;5021539;28;20501;-86
2022/03/31 12:22:54;;;;;;;5.10;0.80;;;10.10;28.60;;;;;;5022636;28;20506;-86
2022/03/31 12:25:28;;;;;;;1.33;0.50;;;10.10;27.90;;;;;;5038867;28;20785;-85
2022/03/31 12:27:56;;;;;;;2.13;0.63;;;9.40;27.30;;;;;;5020385;28;20478;-85
2022/03/31 12:30:21;;;;;;;1.87;0.83;;;10.10;22.30;;;;;;5023209;28;20433;-85
2022/03/31 12:32:48;;;;;;;1.10;0.70;;;9.50;1.00;;;;;;5022648;28;20962;-85
2022/03/31 12:35:14;;;;;;;2.30;0.80;;;9.30;10.10;;;;;;5026993;28;20165;-85
2022/03/31 12:37:48;;;;;;;2.00;0.90;;;9.40;12.30;;;;;;5024305;28;20471;-84
2022/03/31 12:40:16;;;;;;;2.03;0.60;;;9.30;1.00;;;;;;5028455;28;20225;-85
2022/03/31 12:42:57;;;;;;;1.40;0.40;;;9.20;1.00;;;;;;5025806;28;20418;-86
2022/03/31 12:45:24;;;;;;;1.50;0.70;;;9.40;1.00;;;;;;5017932;28;20408;-84
2022/03/31 12:47:50;;;;;;;1.47;0.53;;;9.00;1.00;;;;;;5016267;28;21002;-85
2022/03/31 12:50:34;;;;;;;1.67;0.60;;;8.50;1.00;;;;;;5015133;28;20431;-85
2022/03/31 12:53:01;;;;;;;1.27;0.70;;;8.50;1.00;;;;;;5014684;28;20406;-84
2022/03/31 12:55:29;;;;;;;1.40;0.60;;;8.10;1.00;;;;;;5013760;28;20919;-84
2022/03/31 12:57:56;;;;;;;1.17;0.50;;;8.80;1.00;;;;;;5013590;28;20921;-84
2022/03/31 13:00:22;;;;;;;1.90;0.77;;;8.10;1.00;;;;;;5015555;28;20410;-86
2022/03/31 13:02:48;;;;;;;3.33;0.33;;;8.60;1.00;;;;;;5015721;28;20417;-84
2022/03/31 13:05:22;;;;;;;1.63;0.50;;;8.60;1.00;;;;;;5015746;28;20191;-85